sensor_id;sensor_type;location;lat;lon;timestamp;P1;durP1;ratioP1;P2;durP2;ratioP2
41685;SDS011;27370;42.764;23.432;2023-07-24T00:01:50;15.93;;;8.88;;
41685;SDS011;27370;42.764;23.432;2023-07-24T00:04:15;17.55;;;9.38;;
41685;SDS011;27370;42.764;23.432;2023-07-24T00:06:41;15.00;;;8.57;;
41685;SDS011;27370;42.764;23.432;2023-07-24T00:09:06;17.42;;;9.25;;
41685;SDS011;27370;42.764;23.432;2023-07-24T00:11:32;14.98;;;8.45;;
41685;SDS011;27370;42.764;23.432;2023-07-24T00:13:57;16.05;;;9.25;;
41685;SDS011;27370;42.764;23.432;2023-07-24T00:16:23;15.75;;;8.98;;
41685;SDS011;27370;42.764;23.432;2023-07-24T00:18:48;15.10;;;8.63;;
41685;SDS011;27370;42.764;23.432;2023-07-24T00:21:14;16.38;;;9.75;;
41685;SDS011;27370;42.764;23.432;2023-07-24T00:23:39;15.93;;;9.52;;
41685;SDS011;27370;42.764;23.432;2023-07-24T00:26:05;18.40;;;9.65;;
41685;SDS011;27370;42.764;23.432;2023-07-24T00:28:30;16.67;;;9.98;;
41685;SDS011;27370;42.764;23.432;2023-07-24T00:30:56;15.70;;;8.82;;
41685;SDS011;27370;42.764;23.432;2023-07-24T00:33:21;15.68;;;9.38;;
41685;SDS011;27370;42.764;23.432;2023-07-24T00:35:47;14.43;;;8.98;;
41685;SDS011;27370;42.764;23.432;2023-07-24T00:38:12;15.95;;;9.13;;
41685;SDS011;27370;42.764;23.432;2023-07-24T00:40:38;15.48;;;9.05;;
41685;SDS011;27370;42.764;23.432;2023-07-24T00:43:04;16.88;;;9.32;;
41685;SDS011;27370;42.764;23.432;2023-07-24T00:45:29;17.33;;;9.57;;
41685;SDS011;27370;42.764;23.432;2023-07-24T00:47:55;17.60;;;9.95;;
41685;SDS011;27370;42.764;23.432;2023-07-24T00:50:21;17.73;;;9.75;;
41685;SDS011;27370;42.764;23.432;2023-07-24T00:52:46;16.52;;;9.23;;
41685;SDS011;27370;42.764;23.432;2023-07-24T00:55:13;16.90;;;9.40;;
41685;SDS011;27370;42.764;23.432;2023-07-24T00:57:41;16.50;;;10.30;;
41685;SDS011;27370;42.764;23.432;2023-07-24T01:00:07;19.67;;;9.88;;
41685;SDS011;27370;42.764;23.432;2023-07-24T01:02:34;17.85;;;10.55;;
41685;SDS011;27370;42.764;23.432;2023-07-24T01:05:00;18.10;;;9.40;;
41685;SDS011;27370;42.764;23.432;2023-07-24T01:07:26;18.23;;;9.73;;
41685;SDS011;27370;42.764;23.432;2023-07-24T01:09:52;19.92;;;9.52;;
41685;SDS011;27370;42.764;23.432;2023-07-24T01:15:18;18.90;;;10.67;;
41685;SDS011;27370;42.764;23.432;2023-07-24T01:17:50;17.77;;;10.07;;
41685;SDS011;27370;42.764;23.432;2023-07-24T01:20:23;17.63;;;10.65;;
41685;SDS011;27370;42.764;23.432;2023-07-24T01:25:56;18.77;;;10.68;;
41685;SDS011;27370;42.764;23.432;2023-07-24T01:28:23;17.50;;;10.23;;
41685;SDS011;27370;42.764;23.432;2023-07-24T01:30:50;18.13;;;10.48;;
41685;SDS011;27370;42.764;23.432;2023-07-24T01:33:16;15.95;;;9.57;;
41685;SDS011;27370;42.764;23.432;2023-07-24T01:35:45;17.17;;;9.52;;
41685;SDS011;27370;42.764;23.432;2023-07-24T01:38:15;16.33;;;9.18;;
41685;SDS011;27370;42.764;23.432;2023-07-24T01:40:43;16.08;;;9.27;;
41685;SDS011;27370;42.764;23.432;2023-07-24T01:43:09;15.57;;;9.23;;
41685;SDS011;27370;42.764;23.432;2023-07-24T01:45:35;14.93;;;8.75;;
41685;SDS011;27370;42.764;23.432;2023-07-24T01:48:05;15.20;;;9.13;;
41685;SDS011;27370;42.764;23.432;2023-07-24T01:50:31;15.43;;;9.38;;
41685;SDS011;27370;42.764;23.432;2023-07-24T01:52:57;18.27;;;10.50;;
41685;SDS011;27370;42.764;23.432;2023-07-24T01:55:22;16.17;;;9.68;;
41685;SDS011;27370;42.764;23.432;2023-07-24T01:57:48;17.40;;;10.10;;
41685;SDS011;27370;42.764;23.432;2023-07-24T02:00:13;15.30;;;9.40;;
41685;SDS011;27370;42.764;23.432;2023-07-24T02:02:39;16.95;;;9.27;;
41685;SDS011;27370;42.764;23.432;2023-07-24T02:05:04;17.05;;;10.02;;
41685;SDS011;27370;42.764;23.432;2023-07-24T02:07:30;17.30;;;9.90;;
41685;SDS011;27370;42.764;23.432;2023-07-24T02:09:56;16.40;;;9.82;;
41685;SDS011;27370;42.764;23.432;2023-07-24T02:12:22;17.40;;;9.85;;
41685;SDS011;27370;42.764;23.432;2023-07-24T02:14:47;17.08;;;10.23;;
41685;SDS011;27370;42.764;23.432;2023-07-24T02:17:19;17.42;;;10.38;;
41685;SDS011;27370;42.764;23.432;2023-07-24T02:19:45;17.10;;;10.00;;
41685;SDS011;27370;42.764;23.432;2023-07-24T02:22:11;19.90;;;11.18;;
41685;SDS011;27370;42.764;23.432;2023-07-24T02:24:36;20.25;;;11.40;;
41685;SDS011;27370;42.764;23.432;2023-07-24T02:27:02;20.33;;;11.30;;
41685;SDS011;27370;42.764;23.432;2023-07-24T02:29:30;19.33;;;11.50;;
41685;SDS011;27370;42.764;23.432;2023-07-24T02:31:56;17.63;;;10.40;;
41685;SDS011;27370;42.764;23.432;2023-07-24T02:34:22;17.67;;;10.95;;
41685;SDS011;27370;42.764;23.432;2023-07-24T02:36:51;19.70;;;10.68;;
41685;SDS011;27370;42.764;23.432;2023-07-24T02:39:18;20.13;;;11.30;;
41685;SDS011;27370;42.764;23.432;2023-07-24T02:41:44;24.63;;;11.45;;
41685;SDS011;27370;42.764;23.432;2023-07-24T02:44:10;18.08;;;10.20;;
41685;SDS011;27370;42.764;23.432;2023-07-24T02:46:35;17.35;;;10.10;;
41685;SDS011;27370;42.764;23.432;2023-07-24T02:49:01;19.17;;;11.30;;
41685;SDS011;27370;42.764;23.432;2023-07-24T02:51:26;19.58;;;11.73;;
41685;SDS011;27370;42.764;23.432;2023-07-24T02:53:53;19.17;;;11.52;;
41685;SDS011;27370;42.764;23.432;2023-07-24T02:56:19;18.08;;;10.82;;
41685;SDS011;27370;42.764;23.432;2023-07-24T02:58:45;18.75;;;11.02;;
41685;SDS011;27370;42.764;23.432;2023-07-24T03:01:11;18.15;;;11.07;;
41685;SDS011;27370;42.764;23.432;2023-07-24T03:03:39;21.80;;;11.82;;
41685;SDS011;27370;42.764;23.432;2023-07-24T03:06:05;18.20;;;11.02;;
41685;SDS011;27370;42.764;23.432;2023-07-24T03:08:32;20.38;;;11.65;;
41685;SDS011;27370;42.764;23.432;2023-07-24T03:10:57;23.35;;;12.63;;
41685;SDS011;27370;42.764;23.432;2023-07-24T03:13:25;20.42;;;11.43;;
41685;SDS011;27370;42.764;23.432;2023-07-24T03:15:55;27.00;;;12.43;;
41685;SDS011;27370;42.764;23.432;2023-07-24T03:18:21;18.08;;;10.00;;
41685;SDS011;27370;42.764;23.432;2023-07-24T03:20:48;19.65;;;10.65;;
41685;SDS011;27370;42.764;23.432;2023-07-24T03:23:13;19.55;;;9.40;;
41685;SDS011;27370;42.764;23.432;2023-07-24T03:25:39;18.88;;;10.43;;
41685;SDS011;27370;42.764;23.432;2023-07-24T03:28:04;19.02;;;11.85;;
41685;SDS011;27370;42.764;23.432;2023-07-24T03:30:30;18.00;;;11.38;;
41685;SDS011;27370;42.764;23.432;2023-07-24T03:32:56;22.20;;;11.63;;
41685;SDS011;27370;42.764;23.432;2023-07-24T03:35:22;19.25;;;11.07;;
41685;SDS011;27370;42.764;23.432;2023-07-24T03:37:47;22.52;;;12.50;;
41685;SDS011;27370;42.764;23.432;2023-07-24T03:40:13;20.08;;;11.48;;
41685;SDS011;27370;42.764;23.432;2023-07-24T03:42:39;20.02;;;11.65;;
41685;SDS011;27370;42.764;23.432;2023-07-24T03:45:05;18.60;;;10.45;;
41685;SDS011;27370;42.764;23.432;2023-07-24T03:47:31;19.73;;;10.98;;
41685;SDS011;27370;42.764;23.432;2023-07-24T03:49:56;30.63;;;13.98;;
41685;SDS011;27370;42.764;23.432;2023-07-24T03:52:22;30.92;;;13.75;;
41685;SDS011;27370;42.764;23.432;2023-07-24T03:54:47;29.75;;;13.27;;
41685;SDS011;27370;42.764;23.432;2023-07-24T03:57:13;24.90;;;13.18;;
41685;SDS011;27370;42.764;23.432;2023-07-24T03:59:38;24.13;;;11.88;;
41685;SDS011;27370;42.764;23.432;2023-07-24T04:02:04;21.10;;;11.48;;
41685;SDS011;27370;42.764;23.432;2023-07-24T04:04:30;22.05;;;11.52;;
41685;SDS011;27370;42.764;23.432;2023-07-24T04:06:56;21.92;;;12.48;;
41685;SDS011;27370;42.764;23.432;2023-07-24T04:09:21;22.20;;;12.93;;
41685;SDS011;27370;42.764;23.432;2023-07-24T04:11:47;21.38;;;12.50;;
41685;SDS011;27370;42.764;23.432;2023-07-24T04:14:12;23.33;;;11.38;;
41685;SDS011;27370;42.764;23.432;2023-07-24T04:16:38;20.48;;;11.77;;
41685;SDS011;27370;42.764;23.432;2023-07-24T04:19:03;20.92;;;11.07;;
41685;SDS011;27370;42.764;23.432;2023-07-24T04:21:29;20.55;;;11.20;;
41685;SDS011;27370;42.764;23.432;2023-07-24T04:23:54;18.15;;;10.43;;
41685;SDS011;27370;42.764;23.432;2023-07-24T04:26:20;16.33;;;10.23;;
41685;SDS011;27370;42.764;23.432;2023-07-24T04:28:45;17.25;;;10.30;;
41685;SDS011;27370;42.764;23.432;2023-07-24T04:31:11;22.98;;;10.85;;
41685;SDS011;27370;42.764;23.432;2023-07-24T04:33:36;18.83;;;10.57;;
41685;SDS011;27370;42.764;23.432;2023-07-24T04:36:02;17.42;;;10.02;;
41685;SDS011;27370;42.764;23.432;2023-07-24T04:38:28;19.27;;;10.40;;
41685;SDS011;27370;42.764;23.432;2023-07-24T04:40:53;18.25;;;10.25;;
41685;SDS011;27370;42.764;23.432;2023-07-24T04:43:19;18.00;;;10.23;;
41685;SDS011;27370;42.764;23.432;2023-07-24T04:45:44;19.80;;;10.43;;
41685;SDS011;27370;42.764;23.432;2023-07-24T04:48:10;18.63;;;10.43;;
41685;SDS011;27370;42.764;23.432;2023-07-24T04:50:35;19.38;;;10.65;;
41685;SDS011;27370;42.764;23.432;2023-07-24T04:53:01;21.30;;;11.00;;
41685;SDS011;27370;42.764;23.432;2023-07-24T04:55:26;22.65;;;11.85;;
41685;SDS011;27370;42.764;23.432;2023-07-24T04:57:52;20.65;;;11.55;;
41685;SDS011;27370;42.764;23.432;2023-07-24T05:00:17;20.08;;;11.10;;
41685;SDS011;27370;42.764;23.432;2023-07-24T05:02:43;21.50;;;11.75;;
41685;SDS011;27370;42.764;23.432;2023-07-24T05:05:08;18.92;;;11.48;;
41685;SDS011;27370;42.764;23.432;2023-07-24T05:07:34;18.48;;;11.00;;
41685;SDS011;27370;42.764;23.432;2023-07-24T05:09:59;18.40;;;11.10;;
41685;SDS011;27370;42.764;23.432;2023-07-24T05:12:25;20.38;;;10.63;;
41685;SDS011;27370;42.764;23.432;2023-07-24T05:14:50;17.20;;;9.02;;
41685;SDS011;27370;42.764;23.432;2023-07-24T05:17:16;17.00;;;9.55;;
41685;SDS011;27370;42.764;23.432;2023-07-24T05:19:41;16.98;;;10.13;;
41685;SDS011;27370;42.764;23.432;2023-07-24T05:22:07;45.25;;;11.95;;
41685;SDS011;27370;42.764;23.432;2023-07-24T05:24:33;17.80;;;9.43;;
41685;SDS011;27370;42.764;23.432;2023-07-24T05:26:59;18.17;;;10.38;;
41685;SDS011;27370;42.764;23.432;2023-07-24T05:29:24;18.15;;;9.80;;
41685;SDS011;27370;42.764;23.432;2023-07-24T05:31:49;18.23;;;9.40;;
41685;SDS011;27370;42.764;23.432;2023-07-24T05:34:15;16.67;;;9.68;;
41685;SDS011;27370;42.764;23.432;2023-07-24T05:36:40;17.40;;;9.45;;
41685;SDS011;27370;42.764;23.432;2023-07-24T05:39:06;18.15;;;9.40;;
41685;SDS011;27370;42.764;23.432;2023-07-24T05:41:32;17.63;;;9.52;;
41685;SDS011;27370;42.764;23.432;2023-07-24T05:43:57;17.33;;;9.40;;
41685;SDS011;27370;42.764;23.432;2023-07-24T05:46:23;16.80;;;10.18;;
41685;SDS011;27370;42.764;23.432;2023-07-24T05:48:48;16.30;;;9.15;;
41685;SDS011;27370;42.764;23.432;2023-07-24T05:51:14;15.75;;;9.63;;
41685;SDS011;27370;42.764;23.432;2023-07-24T05:53:39;16.38;;;9.35;;
41685;SDS011;27370;42.764;23.432;2023-07-24T05:56:05;15.93;;;9.32;;
41685;SDS011;27370;42.764;23.432;2023-07-24T05:58:30;18.02;;;9.70;;
41685;SDS011;27370;42.764;23.432;2023-07-24T06:00:56;16.27;;;9.80;;
41685;SDS011;27370;42.764;23.432;2023-07-24T06:03:22;17.13;;;9.90;;
41685;SDS011;27370;42.764;23.432;2023-07-24T06:05:52;17.10;;;9.73;;
41685;SDS011;27370;42.764;23.432;2023-07-24T06:08:19;15.93;;;9.10;;
41685;SDS011;27370;42.764;23.432;2023-07-24T06:10:48;18.15;;;9.70;;
41685;SDS011;27370;42.764;23.432;2023-07-24T06:13:17;20.08;;;10.40;;
41685;SDS011;27370;42.764;23.432;2023-07-24T06:18:09;17.80;;;9.88;;
41685;SDS011;27370;42.764;23.432;2023-07-24T06:20:35;22.73;;;10.82;;
41685;SDS011;27370;42.764;23.432;2023-07-24T06:23:01;21.08;;;10.07;;
41685;SDS011;27370;42.764;23.432;2023-07-24T06:25:29;20.08;;;9.93;;
41685;SDS011;27370;42.764;23.432;2023-07-24T06:27:56;17.45;;;9.20;;
41685;SDS011;27370;42.764;23.432;2023-07-24T06:30:22;18.83;;;9.80;;
41685;SDS011;27370;42.764;23.432;2023-07-24T06:32:47;16.25;;;8.75;;
41685;SDS011;27370;42.764;23.432;2023-07-24T06:35:12;16.95;;;9.98;;
41685;SDS011;27370;42.764;23.432;2023-07-24T06:37:38;15.75;;;9.85;;
41685;SDS011;27370;42.764;23.432;2023-07-24T06:40:04;19.00;;;10.02;;
41685;SDS011;27370;42.764;23.432;2023-07-24T06:42:31;16.10;;;9.35;;
41685;SDS011;27370;42.764;23.432;2023-07-24T06:44:56;18.63;;;9.55;;
41685;SDS011;27370;42.764;23.432;2023-07-24T06:47:22;17.27;;;8.77;;
41685;SDS011;27370;42.764;23.432;2023-07-24T06:49:47;18.98;;;9.15;;
41685;SDS011;27370;42.764;23.432;2023-07-24T06:52:13;15.05;;;9.45;;
41685;SDS011;27370;42.764;23.432;2023-07-24T06:54:38;15.80;;;9.70;;
41685;SDS011;27370;42.764;23.432;2023-07-24T06:57:04;16.15;;;8.55;;
41685;SDS011;27370;42.764;23.432;2023-07-24T06:59:29;15.80;;;8.70;;
41685;SDS011;27370;42.764;23.432;2023-07-24T07:01:55;14.50;;;8.90;;
41685;SDS011;27370;42.764;23.432;2023-07-24T07:04:20;15.85;;;8.77;;
41685;SDS011;27370;42.764;23.432;2023-07-24T07:06:46;17.00;;;9.25;;
41685;SDS011;27370;42.764;23.432;2023-07-24T07:09:11;14.98;;;9.05;;
41685;SDS011;27370;42.764;23.432;2023-07-24T07:11:37;17.05;;;8.57;;
41685;SDS011;27370;42.764;23.432;2023-07-24T07:14:04;17.90;;;8.80;;
41685;SDS011;27370;42.764;23.432;2023-07-24T07:16:29;17.40;;;8.77;;
41685;SDS011;27370;42.764;23.432;2023-07-24T07:18:55;15.82;;;8.77;;
41685;SDS011;27370;42.764;23.432;2023-07-24T07:21:20;15.75;;;8.32;;
41685;SDS011;27370;42.764;23.432;2023-07-24T07:23:47;14.98;;;8.35;;
41685;SDS011;27370;42.764;23.432;2023-07-24T07:26:12;16.65;;;9.23;;
41685;SDS011;27370;42.764;23.432;2023-07-24T07:28:38;14.85;;;8.25;;
41685;SDS011;27370;42.764;23.432;2023-07-24T07:31:04;13.98;;;8.43;;
41685;SDS011;27370;42.764;23.432;2023-07-24T07:33:29;16.58;;;8.48;;
41685;SDS011;27370;42.764;23.432;2023-07-24T07:35:55;15.05;;;8.43;;
41685;SDS011;27370;42.764;23.432;2023-07-24T07:38:21;15.38;;;8.07;;
41685;SDS011;27370;42.764;23.432;2023-07-24T07:40:49;15.98;;;8.55;;
41685;SDS011;27370;42.764;23.432;2023-07-24T07:43:15;18.05;;;8.18;;
41685;SDS011;27370;42.764;23.432;2023-07-24T07:45:40;15.70;;;8.10;;
41685;SDS011;27370;42.764;23.432;2023-07-24T07:48:06;15.43;;;8.20;;
41685;SDS011;27370;42.764;23.432;2023-07-24T07:50:31;14.65;;;7.88;;
41685;SDS011;27370;42.764;23.432;2023-07-24T07:52:57;18.05;;;8.55;;
41685;SDS011;27370;42.764;23.432;2023-07-24T07:55:22;15.35;;;7.93;;
41685;SDS011;27370;42.764;23.432;2023-07-24T07:57:48;18.27;;;8.20;;
41685;SDS011;27370;42.764;23.432;2023-07-24T08:00:13;14.70;;;8.50;;
41685;SDS011;27370;42.764;23.432;2023-07-24T08:02:39;15.48;;;8.40;;
41685;SDS011;27370;42.764;23.432;2023-07-24T08:05:09;14.02;;;8.02;;
41685;SDS011;27370;42.764;23.432;2023-07-24T08:07:35;18.08;;;8.25;;
41685;SDS011;27370;42.764;23.432;2023-07-24T08:10:01;19.25;;;8.02;;
41685;SDS011;27370;42.764;23.432;2023-07-24T08:12:28;16.00;;;8.52;;
41685;SDS011;27370;42.764;23.432;2023-07-24T08:14:54;18.13;;;8.20;;
41685;SDS011;27370;42.764;23.432;2023-07-24T08:17:20;16.65;;;8.38;;
41685;SDS011;27370;42.764;23.432;2023-07-24T08:19:45;14.13;;;8.18;;
41685;SDS011;27370;42.764;23.432;2023-07-24T08:22:11;17.35;;;9.43;;
41685;SDS011;27370;42.764;23.432;2023-07-24T08:24:36;15.77;;;8.10;;
41685;SDS011;27370;42.764;23.432;2023-07-24T08:27:02;15.40;;;8.82;;
41685;SDS011;27370;42.764;23.432;2023-07-24T08:29:28;16.90;;;8.77;;
41685;SDS011;27370;42.764;23.432;2023-07-24T08:31:53;17.77;;;9.15;;
41685;SDS011;27370;42.764;23.432;2023-07-24T08:34:19;15.70;;;8.88;;
41685;SDS011;27370;42.764;23.432;2023-07-24T08:36:44;14.30;;;8.55;;
41685;SDS011;27370;42.764;23.432;2023-07-24T08:39:10;16.83;;;8.55;;
41685;SDS011;27370;42.764;23.432;2023-07-24T08:41:39;17.17;;;8.80;;
41685;SDS011;27370;42.764;23.432;2023-07-24T08:44:05;15.55;;;8.18;;
41685;SDS011;27370;42.764;23.432;2023-07-24T08:46:36;14.50;;;8.43;;
41685;SDS011;27370;42.764;23.432;2023-07-24T08:49:03;17.67;;;8.07;;
41685;SDS011;27370;42.764;23.432;2023-07-24T08:51:29;16.08;;;8.60;;
41685;SDS011;27370;42.764;23.432;2023-07-24T08:53:56;17.25;;;8.27;;
41685;SDS011;27370;42.764;23.432;2023-07-24T08:56:22;16.20;;;8.95;;
41685;SDS011;27370;42.764;23.432;2023-07-24T08:58:48;14.63;;;8.18;;
41685;SDS011;27370;42.764;23.432;2023-07-24T09:01:14;17.30;;;9.07;;
41685;SDS011;27370;42.764;23.432;2023-07-24T09:03:40;16.95;;;8.93;;
41685;SDS011;27370;42.764;23.432;2023-07-24T09:06:06;15.63;;;8.23;;
41685;SDS011;27370;42.764;23.432;2023-07-24T09:08:41;16.27;;;8.90;;
41685;SDS011;27370;42.764;23.432;2023-07-24T09:11:08;22.38;;;9.43;;
41685;SDS011;27370;42.764;23.432;2023-07-24T09:13:38;16.08;;;8.55;;
41685;SDS011;27370;42.764;23.432;2023-07-24T09:16:07;16.98;;;9.20;;
41685;SDS011;27370;42.764;23.432;2023-07-24T09:18:39;15.15;;;8.57;;
41685;SDS011;27370;42.764;23.432;2023-07-24T09:21:06;17.80;;;9.23;;
41685;SDS011;27370;42.764;23.432;2023-07-24T09:23:31;18.83;;;8.95;;
41685;SDS011;27370;42.764;23.432;2023-07-24T09:25:57;14.43;;;8.32;;
41685;SDS011;27370;42.764;23.432;2023-07-24T09:28:22;16.20;;;9.07;;
41685;SDS011;27370;42.764;23.432;2023-07-24T09:30:55;17.27;;;8.55;;
41685;SDS011;27370;42.764;23.432;2023-07-24T09:33:35;16.70;;;9.02;;
41685;SDS011;27370;42.764;23.432;2023-07-24T09:36:03;16.80;;;8.75;;
41685;SDS011;27370;42.764;23.432;2023-07-24T09:38:29;15.82;;;8.65;;
41685;SDS011;27370;42.764;23.432;2023-07-24T09:40:55;19.85;;;9.52;;
41685;SDS011;27370;42.764;23.432;2023-07-24T09:43:23;17.65;;;9.07;;
41685;SDS011;27370;42.764;23.432;2023-07-24T09:45:53;15.77;;;9.05;;
41685;SDS011;27370;42.764;23.432;2023-07-24T09:48:20;15.13;;;8.52;;
41685;SDS011;27370;42.764;23.432;2023-07-24T09:50:48;19.10;;;9.55;;
41685;SDS011;27370;42.764;23.432;2023-07-24T09:56:06;19.00;;;9.48;;
41685;SDS011;27370;42.764;23.432;2023-07-24T09:58:32;17.83;;;9.60;;
41685;SDS011;27370;42.764;23.432;2023-07-24T10:01:00;18.90;;;9.68;;
41685;SDS011;27370;42.764;23.432;2023-07-24T10:03:28;18.65;;;9.98;;
41685;SDS011;27370;42.764;23.432;2023-07-24T10:05:54;19.70;;;9.48;;
41685;SDS011;27370;42.764;23.432;2023-07-24T10:08:20;16.95;;;8.60;;
41685;SDS011;27370;42.764;23.432;2023-07-24T10:10:46;15.50;;;9.00;;
41685;SDS011;27370;42.764;23.432;2023-07-24T10:13:16;17.33;;;9.18;;
41685;SDS011;27370;42.764;23.432;2023-07-24T10:15:43;16.88;;;9.18;;
41685;SDS011;27370;42.764;23.432;2023-07-24T10:18:10;16.63;;;8.57;;
41685;SDS011;27370;42.764;23.432;2023-07-24T10:20:40;17.85;;;8.95;;
41685;SDS011;27370;42.764;23.432;2023-07-24T10:23:09;18.35;;;9.45;;
41685;SDS011;27370;42.764;23.432;2023-07-24T10:25:38;14.20;;;7.55;;
41685;SDS011;27370;42.764;23.432;2023-07-24T10:28:09;17.15;;;9.07;;
41685;SDS011;27370;42.764;23.432;2023-07-24T10:30:40;16.38;;;7.53;;
41685;SDS011;27370;42.764;23.432;2023-07-24T10:33:16;18.23;;;8.85;;
41685;SDS011;27370;42.764;23.432;2023-07-24T10:35:44;17.27;;;8.85;;
41685;SDS011;27370;42.764;23.432;2023-07-24T10:38:13;17.65;;;8.52;;
41685;SDS011;27370;42.764;23.432;2023-07-24T10:40:41;18.05;;;8.82;;
41685;SDS011;27370;42.764;23.432;2023-07-24T10:43:13;16.63;;;9.45;;
41685;SDS011;27370;42.764;23.432;2023-07-24T10:48:15;16.30;;;9.05;;
41685;SDS011;27370;42.764;23.432;2023-07-24T10:50:43;16.38;;;9.15;;
41685;SDS011;27370;42.764;23.432;2023-07-24T10:53:10;17.15;;;9.07;;
41685;SDS011;27370;42.764;23.432;2023-07-24T10:55:38;16.60;;;8.50;;
41685;SDS011;27370;42.764;23.432;2023-07-24T10:58:03;18.00;;;8.48;;
41685;SDS011;27370;42.764;23.432;2023-07-24T11:00:29;17.05;;;8.82;;
41685;SDS011;27370;42.764;23.432;2023-07-24T11:02:55;15.02;;;8.30;;
41685;SDS011;27370;42.764;23.432;2023-07-24T11:05:21;17.48;;;8.90;;
41685;SDS011;27370;42.764;23.432;2023-07-24T11:07:47;16.02;;;8.65;;
41685;SDS011;27370;42.764;23.432;2023-07-24T11:12:45;17.73;;;8.98;;
41685;SDS011;27370;42.764;23.432;2023-07-24T11:15:11;19.05;;;8.65;;
41685;SDS011;27370;42.764;23.432;2023-07-24T11:17:38;18.63;;;8.27;;
41685;SDS011;27370;42.764;23.432;2023-07-24T11:20:12;17.45;;;8.77;;
41685;SDS011;27370;42.764;23.432;2023-07-24T11:22:40;16.48;;;8.68;;
41685;SDS011;27370;42.764;23.432;2023-07-24T11:25:08;18.48;;;8.70;;
41685;SDS011;27370;42.764;23.432;2023-07-24T11:27:41;15.35;;;8.38;;
41685;SDS011;27370;42.764;23.432;2023-07-24T11:30:12;14.77;;;8.25;;
41685;SDS011;27370;42.764;23.432;2023-07-24T11:32:38;17.55;;;8.57;;
41685;SDS011;27370;42.764;23.432;2023-07-24T11:35:05;17.92;;;8.73;;
41685;SDS011;27370;42.764;23.432;2023-07-24T11:37:33;18.00;;;9.10;;
41685;SDS011;27370;42.764;23.432;2023-07-24T11:40:00;15.95;;;8.25;;
41685;SDS011;27370;42.764;23.432;2023-07-24T11:42:36;15.07;;;8.05;;
41685;SDS011;27370;42.764;23.432;2023-07-24T11:45:03;16.75;;;8.10;;
41685;SDS011;27370;42.764;23.432;2023-07-24T11:47:30;16.80;;;7.80;;
41685;SDS011;27370;42.764;23.432;2023-07-24T11:50:04;16.40;;;8.45;;
41685;SDS011;27370;42.764;23.432;2023-07-24T11:52:37;14.98;;;8.23;;
41685;SDS011;27370;42.764;23.432;2023-07-24T11:55:08;17.52;;;8.50;;
41685;SDS011;27370;42.764;23.432;2023-07-24T11:57:35;17.95;;;8.60;;
41685;SDS011;27370;42.764;23.432;2023-07-24T12:00:01;16.42;;;8.75;;
41685;SDS011;27370;42.764;23.432;2023-07-24T12:02:33;15.32;;;7.97;;
41685;SDS011;27370;42.764;23.432;2023-07-24T12:05:01;16.88;;;8.35;;
41685;SDS011;27370;42.764;23.432;2023-07-24T12:07:34;16.90;;;8.25;;
41685;SDS011;27370;42.764;23.432;2023-07-24T12:10:01;18.75;;;8.52;;
41685;SDS011;27370;42.764;23.432;2023-07-24T12:12:40;16.20;;;8.38;;
41685;SDS011;27370;42.764;23.432;2023-07-24T12:15:09;14.52;;;7.97;;
41685;SDS011;27370;42.764;23.432;2023-07-24T12:17:36;16.13;;;8.45;;
41685;SDS011;27370;42.764;23.432;2023-07-24T12:20:03;16.48;;;8.23;;
41685;SDS011;27370;42.764;23.432;2023-07-24T12:22:31;15.05;;;8.73;;
41685;SDS011;27370;42.764;23.432;2023-07-24T12:24:57;15.43;;;7.75;;
41685;SDS011;27370;42.764;23.432;2023-07-24T12:27:23;18.20;;;7.78;;
41685;SDS011;27370;42.764;23.432;2023-07-24T12:29:50;16.98;;;8.68;;
41685;SDS011;27370;42.764;23.432;2023-07-24T12:32:16;13.18;;;8.30;;
41685;SDS011;27370;42.764;23.432;2023-07-24T12:34:42;15.13;;;7.95;;
41685;SDS011;27370;42.764;23.432;2023-07-24T12:37:07;17.80;;;8.73;;
41685;SDS011;27370;42.764;23.432;2023-07-24T12:39:33;16.52;;;7.72;;
41685;SDS011;27370;42.764;23.432;2023-07-24T12:41:58;15.32;;;8.13;;
41685;SDS011;27370;42.764;23.432;2023-07-24T12:44:24;16.08;;;8.13;;
41685;SDS011;27370;42.764;23.432;2023-07-24T12:46:51;17.48;;;8.32;;
41685;SDS011;27370;42.764;23.432;2023-07-24T12:49:16;19.00;;;8.00;;
41685;SDS011;27370;42.764;23.432;2023-07-24T12:51:42;16.02;;;7.85;;
41685;SDS011;27370;42.764;23.432;2023-07-24T12:54:07;15.60;;;8.07;;
41685;SDS011;27370;42.764;23.432;2023-07-24T12:56:33;16.00;;;7.65;;
41685;SDS011;27370;42.764;23.432;2023-07-24T12:58:59;16.15;;;8.45;;
41685;SDS011;27370;42.764;23.432;2023-07-24T13:01:24;15.55;;;8.18;;
41685;SDS011;27370;42.764;23.432;2023-07-24T13:03:52;16.97;;;8.03;;
41685;SDS011;27370;42.764;23.432;2023-07-24T13:06:17;18.13;;;8.57;;
41685;SDS011;27370;42.764;23.432;2023-07-24T13:08:43;15.90;;;8.40;;
41685;SDS011;27370;42.764;23.432;2023-07-24T13:11:08;18.55;;;8.93;;
41685;SDS011;27370;42.764;23.432;2023-07-24T13:13:34;16.02;;;8.20;;
41685;SDS011;27370;42.764;23.432;2023-07-24T13:16:01;16.40;;;8.10;;
41685;SDS011;27370;42.764;23.432;2023-07-24T13:18:28;15.82;;;7.88;;
41685;SDS011;27370;42.764;23.432;2023-07-24T13:20:54;15.43;;;7.72;;
41685;SDS011;27370;42.764;23.432;2023-07-24T13:23:20;13.98;;;7.78;;
41685;SDS011;27370;42.764;23.432;2023-07-24T13:25:46;13.88;;;7.68;;
41685;SDS011;27370;42.764;23.432;2023-07-24T13:28:11;16.83;;;7.85;;
41685;SDS011;27370;42.764;23.432;2023-07-24T13:30:37;13.73;;;7.85;;
41685;SDS011;27370;42.764;23.432;2023-07-24T13:33:02;15.68;;;8.27;;
41685;SDS011;27370;42.764;23.432;2023-07-24T13:35:28;15.10;;;8.50;;
41685;SDS011;27370;42.764;23.432;2023-07-24T13:37:53;16.02;;;8.35;;
41685;SDS011;27370;42.764;23.432;2023-07-24T13:40:19;15.10;;;8.20;;
41685;SDS011;27370;42.764;23.432;2023-07-24T13:42:44;15.75;;;8.15;;
41685;SDS011;27370;42.764;23.432;2023-07-24T13:45:10;13.32;;;7.40;;
41685;SDS011;27370;42.764;23.432;2023-07-24T13:47:35;16.02;;;8.25;;
41685;SDS011;27370;42.764;23.432;2023-07-24T13:50:01;19.92;;;8.68;;
41685;SDS011;27370;42.764;23.432;2023-07-24T13:52:28;18.48;;;8.32;;
41685;SDS011;27370;42.764;23.432;2023-07-24T13:54:54;13.73;;;7.75;;
41685;SDS011;27370;42.764;23.432;2023-07-24T13:57:21;15.60;;;8.57;;
41685;SDS011;27370;42.764;23.432;2023-07-24T13:59:47;16.27;;;8.68;;
41685;SDS011;27370;42.764;23.432;2023-07-24T14:02:12;16.42;;;8.02;;
41685;SDS011;27370;42.764;23.432;2023-07-24T14:04:38;15.60;;;8.27;;
41685;SDS011;27370;42.764;23.432;2023-07-24T14:07:03;15.40;;;7.75;;
41685;SDS011;27370;42.764;23.432;2023-07-24T14:09:29;13.32;;;8.48;;
41685;SDS011;27370;42.764;23.432;2023-07-24T14:11:56;15.18;;;8.25;;
41685;SDS011;27370;42.764;23.432;2023-07-24T14:14:22;14.57;;;7.35;;
41685;SDS011;27370;42.764;23.432;2023-07-24T14:16:48;17.38;;;8.27;;
41685;SDS011;27370;42.764;23.432;2023-07-24T14:19:14;15.70;;;8.75;;
41685;SDS011;27370;42.764;23.432;2023-07-24T14:21:40;13.07;;;7.90;;
41685;SDS011;27370;42.764;23.432;2023-07-24T14:24:06;15.45;;;8.38;;
41685;SDS011;27370;42.764;23.432;2023-07-24T14:26:31;15.20;;;7.70;;
41685;SDS011;27370;42.764;23.432;2023-07-24T14:28:57;15.55;;;8.00;;
41685;SDS011;27370;42.764;23.432;2023-07-24T14:31:23;16.42;;;8.32;;